Time;durP1;ratioP1;P1;durP2;ratioP2;P2;SDS_P1;SDS_P2;PMS_P1;PMS_P2;Temp;Humidity;BMP_temperature;BMP_pressure;BME280_temperature;BME280_humidity;BME280_pressure;Samples;Min_cycle;Max_cycle;Signal;HPM_P1;HPM_P2
2021/05/18 00:02:09;;;;;;;2.63;1.90;;;10.60;99.90;;;;;;5071006;28;20210;-81
2021/05/18 00:04:36;;;;;;;1.83;1.73;;;10.60;99.90;;;;;;5065127;28;20236;-83
2021/05/18 00:07:02;;;;;;;4.72;1.80;;;10.60;99.90;;;;;;5066917;28;20222;-82
2021/05/18 00:12:14;;;;;;;1.95;1.40;;;10.70;99.90;;;;;;5082129;28;20181;-80
2021/05/18 00:14:40;;;;;;;1.35;1.25;;;10.70;99.90;;;;;;5082070;28;20212;-80
2021/05/18 00:17:07;;;;;;;1.35;1.25;;;10.70;99.90;;;;;;5077472;28;20234;-80
2021/05/18 00:19:33;;;;;;;2.28;1.00;;;10.70;99.90;;;;;;5067848;28;20198;-81
2021/05/18 00:22:00;;;;;;;1.25;1.08;;;10.70;99.90;;;;;;5077511;28;20206;-79
2021/05/18 00:24:26;;;;;;;1.20;1.13;;;10.70;99.90;;;;;;5081477;28;20206;-79
2021/05/18 00:26:54;;;;;;;1.20;1.10;;;10.70;99.90;;;;;;5083357;28;20259;-79
2021/05/18 00:29:21;;;;;;;2.00;1.60;;;10.70;99.90;;;;;;5083293;28;20202;-79
2021/05/18 00:31:47;;;;;;;1.17;1.08;;;10.60;99.90;;;;;;5076750;28;20210;-79
2021/05/18 00:34:14;;;;;;;1.70;1.23;;;10.60;99.90;;;;;;5054360;28;20218;-79
2021/05/18 00:36:40;;;;;;;1.90;1.25;;;10.60;99.90;;;;;;5062884;28;20237;-79
2021/05/18 00:39:06;;;;;;;2.05;1.20;;;10.60;99.90;;;;;;5063624;28;20194;-79
2021/05/18 00:41:33;;;;;;;1.55;1.10;;;10.60;99.90;;;;;;5063922;28;20199;-79
2021/05/18 00:44:01;;;;;;;2.05;1.10;;;10.60;99.90;;;;;;5063447;28;20199;-81
2021/05/18 00:46:29;;;;;;;3.75;1.20;;;10.60;99.90;;;;;;5052554;28;20614;-80
2021/05/18 00:48:58;;;;;;;2.13;1.30;;;10.60;99.90;;;;;;5057443;28;20287;-80
2021/05/18 00:51:25;;;;;;;4.43;1.15;;;10.60;99.90;;;;;;5059218;28;20203;-79
2021/05/18 00:53:52;;;;;;;1.48;1.38;;;10.60;99.90;;;;;;5057534;28;20214;-79
2021/05/18 00:56:32;;;;;;;1.30;1.20;;;10.60;99.90;;;;;;5053936;28;20238;-79
2021/05/18 00:59:01;;;;;;;2.28;1.70;;;10.50;99.90;;;;;;5049028;28;20214;-79
2021/05/18 01:01:28;;;;;;;1.20;1.15;;;10.50;99.90;;;;;;5051434;28;20231;-80
2021/05/18 01:03:55;;;;;;;1.30;1.20;;;10.50;99.90;;;;;;5050420;28;20678;-79
2021/05/18 01:06:28;;;;;;;1.85;1.45;;;10.50;99.90;;;;;;5054613;28;20238;-81
2021/05/18 01:08:55;;;;;;;1.90;1.50;;;10.40;99.90;;;;;;5056580;28;20207;-78
2021/05/18 01:11:24;;;;;;;1.30;1.20;;;10.40;99.90;;;;;;5057896;28;20270;-80
2021/05/18 01:13:55;;;;;;;2.90;1.88;;;10.40;99.90;;;;;;5058986;28;20210;-80
2021/05/18 01:16:24;;;;;;;2.15;1.27;;;10.40;99.90;;;;;;5059726;28;20219;-78
2021/05/18 01:18:50;;;;;;;1.50;1.40;;;10.30;99.90;;;;;;5059248;28;20810;-79
2021/05/18 01:21:18;;;;;;;1.73;1.55;;;10.30;99.90;;;;;;5054743;28;20222;-80
2021/05/18 01:23:45;;;;;;;1.00;1.00;;;10.30;99.90;;;;;;5057803;28;20214;-79
2021/05/18 01:26:13;;;;;;;1.73;1.13;;;10.40;99.90;;;;;;5059981;28;20215;-78
2021/05/18 01:28:40;;;;;;;1.65;1.25;;;10.30;99.90;;;;;;5059124;28;20203;-80
2021/05/18 01:31:08;;;;;;;1.35;1.25;;;10.30;99.90;;;;;;5052098;28;20267;-81
2021/05/18 01:33:35;;;;;;;1.60;1.48;;;10.30;99.90;;;;;;5047579;28;20206;-79
2021/05/18 01:36:04;;;;;;;1.75;1.25;;;10.30;99.90;;;;;;5057617;28;20250;-81
2021/05/18 01:38:36;;;;;;;2.25;1.25;;;10.20;99.90;;;;;;5054980;28;20199;-79
2021/05/18 01:43:51;;;;;;;3.30;1.15;;;10.10;99.90;;;;;;5058841;28;20190;-80
2021/05/18 01:46:19;;;;;;;1.40;1.30;;;10.10;99.90;;;;;;5056209;28;20223;-84
2021/05/18 01:48:51;;;;;;;2.05;1.65;;;10.00;99.90;;;;;;5053301;28;20210;-80
2021/05/18 01:51:17;;;;;;;1.20;1.20;;;10.10;99.90;;;;;;5050867;28;20231;-81
2021/05/18 01:53:44;;;;;;;2.30;1.30;;;10.10;99.90;;;;;;5047692;28;20207;-79
2021/05/18 01:56:29;;;;;;;2.13;1.27;;;10.10;99.90;;;;;;5047307;28;20231;-79
2021/05/18 01:59:02;;;;;;;1.20;1.10;;;10.00;99.90;;;;;;5028852;28;20215;-80
2021/05/18 02:01:29;;;;;;;0.88;0.88;;;10.00;99.90;;;;;;5048026;28;20195;-80
2021/05/18 02:03:55;;;;;;;2.47;0.85;;;10.00;99.90;;;;;;5044042;28;20207;-79
2021/05/18 02:06:22;;;;;;;2.40;1.25;;;10.10;99.90;;;;;;5041306;28;20258;-80
2021/05/18 02:08:49;;;;;;;1.70;1.23;;;10.10;99.90;;;;;;5046280;28;20234;-80
2021/05/18 02:11:16;;;;;;;5.72;1.00;;;10.10;99.90;;;;;;5049241;28;20235;-84
2021/05/18 02:13:46;;;;;;;1.70;1.10;;;10.10;99.90;;;;;;5048644;28;20211;-81
2021/05/18 02:16:17;;;;;;;1.25;0.85;;;10.10;99.90;;;;;;5043667;28;20238;-80
2021/05/18 02:19:00;;;;;;;1.42;1.02;;;10.10;99.90;;;;;;5045304;28;20203;-80
2021/05/18 02:21:34;;;;;;;1.00;0.95;;;10.10;99.90;;;;;;5042311;28;20660;-79
2021/05/18 02:26:46;;;;;;;1.70;0.90;;;10.00;99.90;;;;;;5047150;28;20259;-80
2021/05/18 02:29:12;;;;;;;1.50;0.90;;;10.10;99.90;;;;;;5055371;28;20279;-79
2021/05/18 02:31:39;;;;;;;1.25;1.00;;;10.10;99.90;;;;;;5055975;28;20191;-80
2021/05/18 02:34:05;;;;;;;1.67;0.93;;;10.10;99.90;;;;;;5055723;28;20243;-80
2021/05/18 02:36:31;;;;;;;1.40;0.90;;;10.00;99.90;;;;;;5045657;28;20260;-80
2021/05/18 02:38:58;;;;;;;1.63;1.00;;;10.10;99.90;;;;;;5046853;28;20207;-81
2021/05/18 02:41:26;;;;;;;2.05;1.30;;;10.00;99.90;;;;;;5046390;28;20199;-80
2021/05/18 02:43:55;;;;;;;1.00;1.00;;;10.10;99.90;;;;;;5045581;28;20222;-80
2021/05/18 02:49:09;;;;;;;1.85;0.95;;;10.10;99.90;;;;;;5041028;28;20211;-82
2021/05/18 02:51:37;;;;;;;1.15;1.05;;;10.10;99.90;;;;;;5063910;28;20207;-80
2021/05/18 02:54:05;;;;;;;1.50;1.40;;;10.10;99.90;;;;;;5063299;28;20214;-79
2021/05/18 02:56:37;;;;;;;1.40;1.30;;;10.10;99.90;;;;;;5059901;28;20240;-80
2021/05/18 02:59:11;;;;;;;1.73;1.38;;;10.10;99.90;;;;;;5059739;28;20237;-80
2021/05/18 03:01:38;;;;;;;1.52;1.42;;;10.20;99.90;;;;;;5060611;28;20201;-80
2021/05/18 03:04:05;;;;;;;2.28;1.20;;;10.10;99.90;;;;;;5059949;28;20735;-80
2021/05/18 03:06:32;;;;;;;1.88;1.40;;;10.10;99.90;;;;;;5059014;28;20272;-79
2021/05/18 03:08:58;;;;;;;2.40;1.77;;;10.10;99.90;;;;;;5061628;28;20213;-81
2021/05/18 03:11:25;;;;;;;1.55;1.30;;;10.00;99.90;;;;;;5059468;28;20279;-81
2021/05/18 03:13:54;;;;;;;2.30;1.77;;;10.10;99.90;;;;;;5059993;28;20588;-80
2021/05/18 03:16:21;;;;;;;2.40;1.95;;;10.10;99.90;;;;;;5059022;28;20724;-79
2021/05/18 03:18:48;;;;;;;1.35;1.35;;;10.10;99.90;;;;;;5058510;28;20634;-80
2021/05/18 03:21:14;;;;;;;1.70;1.50;;;10.00;99.90;;;;;;5059220;28;20199;-80
2021/05/18 03:23:40;;;;;;;1.80;1.70;;;10.00;99.90;;;;;;5059110;28;20210;-80
2021/05/18 03:26:07;;;;;;;1.65;1.55;;;10.00;99.90;;;;;;5059312;28;20309;-79
2021/05/18 03:28:33;;;;;;;1.75;1.40;;;10.00;99.90;;;;;;5057931;28;20214;-83
2021/05/18 03:31:14;;;;;;;1.63;1.35;;;9.90;99.90;;;;;;5059067;28;20198;-76
2021/05/18 03:36:30;;;;;;;2.28;1.60;;;9.90;99.90;;;;;;5037144;28;20659;-80
2021/05/18 03:38:57;;;;;;;1.50;1.40;;;9.90;99.90;;;;;;5040096;28;20230;-80
2021/05/18 03:41:27;;;;;;;2.40;1.42;;;9.90;99.90;;;;;;5041909;28;20207;-82
2021/05/18 03:43:59;;;;;;;2.15;1.30;;;9.90;99.90;;;;;;5042382;28;20286;-83
2021/05/18 03:54:50;;;;;;;1.60;1.50;;;9.90;99.90;;;;;;5056791;28;20194;-84
2021/05/18 04:02:54;;;;;;;1.55;1.45;;;10.00;99.90;;;;;;5047726;28;20194;-80
2021/05/18 04:11:09;;;;;;;1.55;1.45;;;10.10;99.90;;;;;;5042700;28;20210;-80
2021/05/18 04:19:07;;;;;;;1.67;1.58;;;10.40;99.90;;;;;;5044415;28;20214;-80
2021/05/18 04:21:46;;;;;;;1.50;1.40;;;10.40;99.90;;;;;;5046719;28;20272;-79
2021/05/18 04:24:38;;;;;;;4.10;2.70;;;10.40;99.90;;;;;;5043238;28;20644;-79
2021/05/18 04:52:08;;;;;;;2.28;2.15;;;10.80;99.90;;;;;;5030467;28;20198;-80
2021/05/18 04:55:13;;;;;;;1.95;1.60;;;10.90;99.90;;;;;;5056579;28;20210;-80
2021/05/18 05:00:25;;;;;;;1.50;1.40;;;11.00;99.90;;;;;;5036542;28;20215;-80
2021/05/18 05:03:08;;;;;;;1.90;1.80;;;10.90;99.90;;;;;;5038051;28;20207;-79
2021/05/18 05:08:19;;;;;;;1.55;1.45;;;11.00;99.90;;;;;;5018650;28;20199;-78
2021/05/18 05:16:13;;;;;;;2.15;1.95;;;10.90;99.90;;;;;;5038523;28;20300;-79
2021/05/18 05:18:40;;;;;;;2.35;2.05;;;10.90;99.90;;;;;;5039806;28;20218;-80
2021/05/18 05:21:07;;;;;;;2.60;1.65;;;10.90;99.90;;;;;;5042899;28;20668;-78
2021/05/18 05:23:34;;;;;;;3.30;1.40;;;11.00;99.90;;;;;;5057787;28;20203;-81
2021/05/18 05:28:28;;;;;;;1.73;1.63;;;11.00;99.90;;;;;;5080824;28;20214;-80
2021/05/18 05:30:55;;;;;;;1.98;1.30;;;11.10;99.90;;;;;;5081088;28;20198;-82
2021/05/18 05:33:21;;;;;;;1.95;1.30;;;11.10;99.90;;;;;;5083295;28;20220;-81
2021/05/18 05:35:48;;;;;;;2.75;1.65;;;11.10;99.90;;;;;;5080990;28;20255;-80
2021/05/18 05:38:17;;;;;;;1.70;1.55;;;11.20;99.90;;;;;;5057850;28;20301;-79
2021/05/18 05:40:44;;;;;;;1.67;1.40;;;11.20;99.90;;;;;;5061539;28;20250;-79
2021/05/18 05:43:11;;;;;;;2.70;1.70;;;11.40;99.90;;;;;;5058307;28;20245;-79
2021/05/18 05:45:37;;;;;;;1.40;1.30;;;11.50;99.00;;;;;;5058424;28;20234;-81
2021/05/18 05:48:04;;;;;;;2.88;1.10;;;11.70;97.50;;;;;;5064098;28;20228;-80
2021/05/18 05:50:31;;;;;;;1.02;0.93;;;11.70;95.60;;;;;;5062940;28;20214;-80
2021/05/18 05:52:57;;;;;;;1.50;1.40;;;11.80;95.20;;;;;;5058290;28;20206;-81
2021/05/18 05:55:24;;;;;;;1.30;1.00;;;11.90;93.90;;;;;;5060199;28;20606;-79
2021/05/18 05:57:52;;;;;;;2.17;1.13;;;11.80;91.90;;;;;;5067874;28;20227;-81
2021/05/18 06:00:19;;;;;;;2.42;1.30;;;11.90;91.50;;;;;;5067403;28;20210;-82
2021/05/18 06:02:46;;;;;;;1.85;1.05;;;11.90;90.20;;;;;;5060751;28;20241;-79
2021/05/18 06:05:13;;;;;;;1.17;1.08;;;12.00;89.50;;;;;;5065232;28;20225;-84
2021/05/18 06:07:39;;;;;;;5.55;0.95;;;12.10;88.10;;;;;;5069149;28;20256;-83
2021/05/18 06:10:11;;;;;;;2.53;1.40;;;12.10;86.60;;;;;;5061630;28;20234;-80
2021/05/18 06:37:35;;;;;;;1.07;0.80;;;15.80;61.90;;;;;;5061573;28;20451;-83
2021/05/18 06:42:47;;;;;;;3.60;1.10;;;16.90;55.70;;;;;;5064227;28;20440;-80
2021/05/18 06:48:01;;;;;;;2.50;1.27;;;16.80;55.60;;;;;;5068237;28;20499;-78
2021/05/18 06:50:32;;;;;;;3.20;1.40;;;16.40;55.20;;;;;;5069316;28;20453;-78
2021/05/18 06:53:00;;;;;;;1.73;1.63;;;15.80;57.90;;;;;;5070529;28;20550;-80
2021/05/18 06:55:29;;;;;;;2.10;1.33;;;15.60;59.20;;;;;;5064994;28;20453;-79
2021/05/18 06:58:02;;;;;;;3.03;1.77;;;15.50;59.00;;;;;;5057888;28;20574;-79
2021/05/18 07:00:28;;;;;;;2.00;1.40;;;15.50;58.30;;;;;;5055193;28;20453;-78
2021/05/18 07:02:57;;;;;;;1.70;1.50;;;15.40;60.00;;;;;;5052577;28;20449;-79
2021/05/18 07:05:32;;;;;;;2.05;1.30;;;14.90;59.20;;;;;;5052581;28;20206;-79
2021/05/18 07:08:06;;;;;;;2.30;1.80;;;14.70;60.00;;;;;;5056192;28;20214;-79
2021/05/18 07:10:33;;;;;;;3.63;1.50;;;14.30;62.60;;;;;;5055937;28;20304;-79
2021/05/18 07:12:59;;;;;;;2.50;1.40;;;14.10;64.50;;;;;;5051882;28;20194;-78
2021/05/18 07:15:28;;;;;;;2.70;1.40;;;14.20;64.50;;;;;;5050893;28;20199;-79
2021/05/18 07:17:57;;;;;;;2.22;2.00;;;14.10;62.40;;;;;;5054587;28;20267;-79
2021/05/18 07:20:30;;;;;;;1.52;1.40;;;14.20;64.00;;;;;;5056084;28;20313;-78
2021/05/18 07:22:58;;;;;;;2.90;1.70;;;14.40;62.70;;;;;;5058997;28;20210;-78
2021/05/18 07:25:25;;;;;;;2.67;1.60;;;14.30;61.40;;;;;;5055891;28;20392;-79
2021/05/18 07:27:52;;;;;;;5.35;1.83;;;14.30;61.40;;;;;;5053721;28;20237;-78
2021/05/18 07:30:19;;;;;;;5.68;1.80;;;14.40;60.90;;;;;;5060039;28;20272;-80
2021/05/18 07:32:46;;;;;;;2.03;1.55;;;14.20;62.50;;;;;;5073012;28;20198;-79
2021/05/18 07:35:13;;;;;;;3.45;1.48;;;14.70;60.50;;;;;;5064665;28;20226;-77
2021/05/18 07:37:40;;;;;;;4.63;1.50;;;15.00;59.60;;;;;;5067212;28;20230;-78
2021/05/18 07:40:08;;;;;;;5.15;2.20;;;15.00;57.80;;;;;;5072207;28;20228;-78
2021/05/18 07:42:35;;;;;;;3.33;1.63;;;15.20;58.00;;;;;;5059251;28;20229;-77
2021/05/18 07:45:01;;;;;;;4.03;1.80;;;15.10;56.80;;;;;;5053773;28;20241;-77
2021/05/18 07:47:31;;;;;;;6.03;1.65;;;15.30;57.30;;;;;;5054332;28;20280;-78
2021/05/18 07:50:02;;;;;;;3.05;1.90;;;15.20;58.10;;;;;;5053584;28;20285;-78
2021/05/18 08:01:06;;;;;;;2.53;2.08;;;13.90;62.20;;;;;;5054643;28;20216;-77
2021/05/18 08:06:17;;;;;;;2.88;2.10;;;13.70;66.40;;;;;;5058847;28;20237;-79
2021/05/18 08:08:44;;;;;;;3.90;1.55;;;13.90;63.70;;;;;;5061737;28;20390;-79
2021/05/18 08:11:12;;;;;;;3.75;2.00;;;14.00;62.30;;;;;;5063341;28;20213;-80
2021/05/18 08:13:38;;;;;;;2.10;1.70;;;14.10;62.40;;;;;;5069044;28;20203;-80
2021/05/18 10:37:43;;;;;;;1.73;1.15;;;14.70;48.20;;;;;;5021020;28;20223;-79
2021/05/18 10:40:27;;;;;;;2.50;1.08;;;14.40;51.70;;;;;;5061525;28;20265;-80
2021/05/18 10:43:07;;;;;;;14.05;2.67;;;14.70;50.90;;;;;;5075989;28;20224;-78
2021/05/18 10:46:00;;;;;;;3.80;1.15;;;15.30;49.30;;;;;;5066608;28;20233;-80
2021/05/18 10:48:28;;;;;;;3.33;1.48;;;15.70;45.70;;;;;;5072612;28;20286;-78
2021/05/18 10:50:56;;;;;;;2.78;1.15;;;15.90;45.00;;;;;;5076486;28;20213;-78
2021/05/18 10:53:23;;;;;;;4.50;1.40;;;15.90;45.00;;;;;;5068121;28;20311;-79
2021/05/18 10:56:04;;;;;;;4.30;1.30;;;16.10;45.20;;;;;;5061089;28;20771;-78
2021/05/18 10:58:31;;;;;;;1.60;1.03;;;16.50;43.00;;;;;;5061626;28;20575;-79
2021/05/18 11:00:58;;;;;;;2.20;1.23;;;16.40;43.00;;;;;;5062472;28;20428;-79
2021/05/18 11:03:24;;;;;;;4.87;1.40;;;16.40;45.50;;;;;;5061880;28;20477;-79
2021/05/18 11:05:51;;;;;;;2.45;1.17;;;15.90;46.40;;;;;;5063886;28;20514;-78
2021/05/18 11:08:18;;;;;;;1.67;1.30;;;15.80;48.20;;;;;;5064900;28;20280;-79
2021/05/18 11:10:46;;;;;;;3.30;1.03;;;16.10;47.70;;;;;;5058122;28;20483;-78
2021/05/18 11:13:14;;;;;;;2.83;1.10;;;16.40;46.10;;;;;;5058302;28;20420;-81
2021/05/18 11:15:41;;;;;;;3.20;1.00;;;16.60;43.90;;;;;;5060828;28;20468;-77
2021/05/18 11:18:07;;;;;;;3.27;1.30;;;16.70;43.60;;;;;;5061720;28;20938;-80
2021/05/18 11:20:47;;;;;;;2.40;0.97;;;16.60;42.00;;;;;;5060000;28;20427;-78
2021/05/18 11:23:22;;;;;;;1.37;1.03;;;16.80;40.90;;;;;;5060318;28;20453;-78
2021/05/18 11:25:52;;;;;;;1.87;1.67;;;17.30;41.70;;;;;;5060389;28;20502;-79
2021/05/18 11:28:22;;;;;;;3.17;0.90;;;17.80;37.50;;;;;;5057182;28;20546;-78
2021/05/18 11:30:51;;;;;;;2.30;1.10;;;18.00;35.60;;;;;;5058144;28;20496;-78
2021/05/18 11:33:17;;;;;;;5.77;1.00;;;17.80;36.70;;;;;;5055869;28;20488;-78
2021/05/18 11:35:44;;;;;;;1.87;1.20;;;16.90;40.00;;;;;;5054591;28;20441;-77
2021/05/18 11:38:14;;;;;;;2.63;0.90;;;16.30;40.50;;;;;;5054303;28;20492;-78
2021/05/18 11:40:44;;;;;;;2.53;0.60;;;15.80;41.00;;;;;;5054248;28;20476;-77
2021/05/18 11:43:20;;;;;;;1.43;0.60;;;15.50;42.50;;;;;;5056318;28;20351;-77
2021/05/18 11:45:49;;;;;;;1.48;0.60;;;15.80;41.00;;;;;;5053416;28;20445;-77
2021/05/18 11:48:17;;;;;;;2.00;0.83;;;16.10;38.10;;;;;;5053255;28;20813;-76
2021/05/18 11:50:44;;;;;;;2.00;0.60;;;16.30;36.50;;;;;;5054050;28;20464;-77
2021/05/18 11:53:29;;;;;;;5.15;1.10;;;16.40;35.40;;;;;;5053242;28;20512;-78
2021/05/18 11:55:55;;;;;;;3.40;0.50;;;16.50;35.50;;;;;;5054062;28;20804;-77
2021/05/18 11:58:23;;;;;;;1.30;0.60;;;16.80;35.80;;;;;;5054534;28;20649;-78
2021/05/18 12:00:49;;;;;;;1.37;0.63;;;16.60;35.50;;;;;;5058408;28;20434;-78
2021/05/18 12:03:16;;;;;;;1.13;0.70;;;16.70;35.00;;;;;;5072565;28;20544;-79
2021/05/18 12:05:54;;;;;;;4.70;1.10;;;16.50;35.50;;;;;;5074983;28;20743;-80
2021/05/18 12:08:31;;;;;;;1.20;1.10;;;16.50;35.50;;;;;;5074794;28;20468;-79
2021/05/18 12:11:11;;;;;;;1.23;0.80;;;16.60;35.60;;;;;;5074117;28;20423;-78
2021/05/18 12:13:39;;;;;;;1.37;1.10;;;17.00;36.00;;;;;;5075518;28;20419;-79
2021/05/18 12:16:07;;;;;;;2.10;0.80;;;17.60;34.40;;;;;;5076136;28;20445;-79
2021/05/18 12:18:35;;;;;;;3.00;1.10;;;18.30;30.70;;;;;;5076456;28;20504;-80
2021/05/18 12:21:03;;;;;;;0.97;0.70;;;18.20;31.10;;;;;;5076297;28;20457;-78
2021/05/18 12:23:30;;;;;;;4.63;0.80;;;18.10;31.20;;;;;;5076601;28;20461;-77
2021/05/18 12:26:09;;;;;;;1.80;0.60;;;17.90;32.60;;;;;;5076287;28;20457;-82
2021/05/18 12:28:36;;;;;;;2.30;1.07;;;17.30;34.50;;;;;;5076629;28;20439;-83
2021/05/18 12:31:06;;;;;;;3.10;1.10;;;16.80;36.10;;;;;;5076811;28;20434;-83
2021/05/18 12:33:34;;;;;;;1.67;0.83;;;16.60;37.30;;;;;;5076771;28;20430;-81
2021/05/18 12:36:05;;;;;;;0.70;0.70;;;16.10;39.30;;;;;;5072177;28;20416;-79
2021/05/18 12:38:32;;;;;;;1.55;0.70;;;16.10;38.50;;;;;;5070922;28;20481;-86
2021/05/18 12:41:03;;;;;;;6.97;1.13;;;16.40;36.60;;;;;;5071039;28;20202;-78
2021/05/18 12:43:38;;;;;;;3.58;1.02;;;16.60;35.60;;;;;;5069901;28;20501;-82
2021/05/18 12:46:10;;;;;;;1.93;0.80;;;16.80;34.10;;;;;;5062536;28;20206;-78
2021/05/18 12:48:38;;;;;;;2.17;0.80;;;16.90;32.40;;;;;;5062918;28;20441;-80
2021/05/18 12:51:20;;;;;;;2.10;0.80;;;17.20;31.20;;;;;;5059315;28;20464;-77
2021/05/18 12:53:47;;;;;;;1.70;0.63;;;17.50;29.80;;;;;;5061252;28;20442;-79
2021/05/18 12:56:28;;;;;;;2.00;0.50;;;17.60;29.40;;;;;;5062841;28;20449;-78
2021/05/18 12:59:07;;;;;;;3.30;0.90;;;17.70;28.90;;;;;;5082964;28;20494;-78
2021/05/18 13:01:41;;;;;;;0.57;0.57;;;17.80;28.80;;;;;;5087960;28;20472;-79
2021/05/18 13:04:11;;;;;;;1.30;1.00;;;17.70;29.90;;;;;;5082884;28;20437;-78
2021/05/18 13:06:43;;;;;;;2.53;0.70;;;18.00;30.90;;;;;;5063634;28;20813;-79
2021/05/18 13:09:17;;;;;;;2.83;1.20;;;18.30;27.90;;;;;;5067406;28;20432;-79
2021/05/18 13:14:48;;;;;;;0.70;0.70;;;18.10;28.70;;;;;;5075402;28;20436;-79
2021/05/18 13:17:16;;;;;;;1.47;0.50;;;17.90;29.10;;;;;;5071213;28;20470;-82
2021/05/18 13:19:42;;;;;;;1.33;0.70;;;17.90;27.40;;;;;;5064961;28;20800;-79
2021/05/18 13:22:08;;;;;;;1.00;1.00;;;17.90;28.40;;;;;;5074518;28;20437;-78
2021/05/18 13:27:19;;;;;;;2.00;0.60;;;18.20;29.10;;;;;;5073194;28;20471;-80
2021/05/18 13:29:46;;;;;;;2.70;0.70;;;18.30;29.60;;;;;;5074336;28;20569;-79
2021/05/18 13:32:12;;;;;;;2.67;0.80;;;18.40;28.90;;;;;;5072885;28;20424;-79
2021/05/18 13:34:39;;;;;;;1.37;0.93;;;18.20;29.60;;;;;;5073939;28;20437;-80
2021/05/18 13:37:06;;;;;;;3.27;1.07;;;17.90;31.00;;;;;;5072184;28;20496;-82
2021/05/18 13:39:32;;;;;;;0.90;0.60;;;17.80;30.90;;;;;;5072396;28;20436;-81
2021/05/18 13:41:59;;;;;;;1.07;0.60;;;17.30;34.80;;;;;;5073341;28;21014;-81
2021/05/18 13:44:25;;;;;;;1.73;0.60;;;16.70;34.20;;;;;;5073196;28;20453;-80
2021/05/18 13:46:52;;;;;;;2.23;0.83;;;16.50;33.90;;;;;;5072204;28;20465;-81
2021/05/18 13:49:19;;;;;;;0.53;0.53;;;16.40;35.40;;;;;;5072298;28;20449;-82
2021/05/18 13:51:46;;;;;;;0.73;0.73;;;16.60;33.10;;;;;;5077993;28;20424;-81
2021/05/18 13:54:12;;;;;;;0.50;0.33;;;16.90;32.60;;;;;;5074484;28;20460;-82
2021/05/18 13:56:42;;;;;;;0.83;0.50;;;17.30;31.00;;;;;;5077243;28;20473;-82
2021/05/18 13:59:12;;;;;;;1.73;0.60;;;17.40;31.30;;;;;;5078991;28;21011;-81
2021/05/18 14:01:38;;;;;;;1.73;0.60;;;17.50;31.70;;;;;;5076008;28;20445;-80
2021/05/18 14:04:05;;;;;;;0.47;0.47;;;17.80;31.90;;;;;;5075192;28;20438;-80
2021/05/18 14:06:32;;;;;;;1.70;0.70;;;18.20;31.70;;;;;;5075759;28;20504;-81
2021/05/18 14:08:59;;;;;;;1.03;0.40;;;18.80;31.50;;;;;;5076839;28;20432;-80
2021/05/18 14:11:26;;;;;;;0.63;0.60;;;19.10;30.30;;;;;;5076539;28;20453;-81
2021/05/18 14:13:53;;;;;;;0.70;0.50;;;18.80;29.30;;;;;;5076992;28;20440;-81
2021/05/18 14:16:22;;;;;;;1.53;0.70;;;18.40;29.50;;;;;;5066257;28;20476;-81
2021/05/18 14:18:50;;;;;;;1.43;0.60;;;18.20;30.00;;;;;;5062166;28;20481;-81
2021/05/18 14:21:17;;;;;;;1.13;0.60;;;17.80;29.80;;;;;;5060788;28;20480;-82
2021/05/18 14:23:47;;;;;;;6.10;0.60;;;17.30;29.20;;;;;;5062943;28;20439;-82
2021/05/18 14:26:15;;;;;;;2.00;0.70;;;17.00;30.60;;;;;;5064704;28;20460;-82
2021/05/18 14:28:42;;;;;;;1.80;0.60;;;16.80;31.50;;;;;;5063183;28;21075;-79
2021/05/18 14:31:10;;;;;;;2.93;0.50;;;16.50;31.70;;;;;;5074884;28;20552;-81
2021/05/18 14:33:38;;;;;;;6.80;0.63;;;16.30;33.00;;;;;;5063573;28;21023;-81
2021/05/18 14:36:08;;;;;;;1.25;0.77;;;16.10;33.60;;;;;;5063389;28;20906;-82
2021/05/18 14:38:36;;;;;;;1.60;0.80;;;15.90;35.60;;;;;;5061872;28;20222;-81
2021/05/18 14:46:28;;;;;;;0.80;0.60;;;15.20;40.80;;;;;;5063746;28;20218;-81
2021/05/18 14:54:45;;;;;;;0.90;0.77;;;16.00;43.40;;;;;;5062148;28;20323;-83
2021/05/18 14:57:12;;;;;;;1.10;0.90;;;16.50;41.50;;;;;;5061339;28;20484;-82
2021/05/18 14:59:39;;;;;;;0.77;0.77;;;17.20;38.80;;;;;;5062994;28;20452;-81
2021/05/18 15:02:05;;;;;;;1.60;0.67;;;17.70;37.90;;;;;;5058574;28;20449;-82
2021/05/18 15:04:34;;;;;;;1.27;0.50;;;18.10;31.80;;;;;;5058611;28;20453;-81
2021/05/18 15:07:04;;;;;;;0.60;0.60;;;18.30;31.30;;;;;;5059765;28;20488;-82
2021/05/18 15:09:31;;;;;;;0.70;0.60;;;18.20;29.60;;;;;;5065040;28;20441;-81
2021/05/18 15:11:57;;;;;;;1.90;0.57;;;17.90;29.50;;;;;;5060550;28;20441;-80
2021/05/18 15:14:24;;;;;;;0.70;0.50;;;17.70;29.90;;;;;;5061481;28;20491;-81
2021/05/18 15:16:51;;;;;;;0.73;0.60;;;17.70;30.30;;;;;;5059985;28;20500;-80
2021/05/18 15:19:18;;;;;;;1.23;0.70;;;17.80;28.40;;;;;;5060905;28;20404;-81
2021/05/18 15:21:45;;;;;;;1.13;0.50;;;17.60;30.60;;;;;;5060114;28;21014;-82
2021/05/18 15:24:12;;;;;;;2.00;0.60;;;17.70;29.30;;;;;;5061278;28;20432;-80
2021/05/18 15:26:38;;;;;;;0.60;0.50;;;17.60;29.70;;;;;;5062891;28;20633;-81
2021/05/18 15:29:06;;;;;;;1.20;0.70;;;17.50;32.80;;;;;;5064414;28;20493;-82
2021/05/18 15:31:33;;;;;;;1.90;0.50;;;17.30;34.00;;;;;;5065179;28;20452;-81
2021/05/18 15:34:00;;;;;;;1.33;0.77;;;17.40;36.40;;;;;;5062008;28;20455;-81
2021/05/18 15:36:26;;;;;;;1.77;0.70;;;17.00;36.00;;;;;;5065862;28;21012;-80
2021/05/18 15:38:54;;;;;;;0.50;0.50;;;16.70;35.70;;;;;;5076940;28;20550;-83
2021/05/18 15:41:20;;;;;;;0.97;0.57;;;16.20;36.20;;;;;;5077065;28;20446;-82
2021/05/18 15:43:47;;;;;;;0.95;0.60;;;16.00;35.10;;;;;;5076984;28;20432;-84
2021/05/18 15:46:15;;;;;;;0.52;0.50;;;15.90;35.80;;;;;;5076101;28;20190;-83
2021/05/18 15:48:45;;;;;;;1.33;0.63;;;15.70;35.50;;;;;;5075865;28;20195;-83
2021/05/18 15:51:15;;;;;;;0.60;0.50;;;15.40;37.20;;;;;;5077072;28;20224;-83
2021/05/18 15:53:42;;;;;;;0.60;0.50;;;15.30;37.60;;;;;;5076788;28;20194;-82
2021/05/18 15:56:12;;;;;;;0.80;0.80;;;15.10;38.50;;;;;;5068379;28;20264;-83
2021/05/18 15:58:39;;;;;;;2.88;1.00;;;14.60;43.00;;;;;;5063614;28;20285;-83
2021/05/18 16:01:06;;;;;;;0.90;0.85;;;14.70;45.20;;;;;;5061427;28;20198;-82
2021/05/18 16:03:32;;;;;;;1.00;0.80;;;14.70;45.50;;;;;;5061678;28;20665;-81
2021/05/18 16:06:02;;;;;;;0.50;0.40;;;14.60;47.30;;;;;;5064087;28;20214;-82
2021/05/18 16:11:13;;;;;;;1.02;0.70;;;14.50;49.10;;;;;;5060955;28;20267;-82
2021/05/18 16:13:41;;;;;;;0.85;0.70;;;14.80;45.70;;;;;;5065154;28;20202;-82
2021/05/18 16:16:10;;;;;;;1.08;0.88;;;15.10;44.30;;;;;;5065169;28;20238;-82
2021/05/18 16:18:38;;;;;;;2.25;0.90;;;15.50;44.60;;;;;;5061888;28;20230;-81
2021/05/18 16:21:06;;;;;;;0.60;0.60;;;15.90;43.50;;;;;;5062782;28;20217;-81
2021/05/18 16:23:35;;;;;;;1.17;0.70;;;16.40;41.10;;;;;;5067671;28;20211;-81
2021/05/18 16:26:04;;;;;;;1.00;0.80;;;16.50;39.70;;;;;;5065251;28;20469;-81
2021/05/18 16:28:30;;;;;;;1.92;1.30;;;16.60;39.80;;;;;;5064976;28;20453;-81
2021/05/18 16:30:58;;;;;;;0.80;0.80;;;16.50;39.20;;;;;;5063930;28;20213;-80
2021/05/18 16:33:25;;;;;;;2.60;1.20;;;16.50;40.60;;;;;;5062956;28;20442;-82
2021/05/18 16:35:52;;;;;;;1.20;0.85;;;16.50;39.70;;;;;;5067915;28;20473;-82
2021/05/18 16:38:20;;;;;;;1.57;0.83;;;16.40;39.80;;;;;;5071042;28;20234;-83
2021/05/18 16:40:58;;;;;;;1.53;0.80;;;16.30;40.10;;;;;;5073942;28;20479;-82
2021/05/18 16:43:27;;;;;;;0.70;0.70;;;16.10;41.00;;;;;;5074435;28;20470;-81
2021/05/18 16:45:54;;;;;;;1.23;0.90;;;16.00;41.00;;;;;;5076242;28;20441;-81
2021/05/18 16:48:22;;;;;;;0.82;0.82;;;15.80;42.70;;;;;;5074120;28;20464;-81
2021/05/18 16:50:48;;;;;;;1.25;0.80;;;15.50;43.30;;;;;;5067285;28;20202;-81
2021/05/18 16:53:15;;;;;;;1.35;0.90;;;15.40;44.50;;;;;;5064550;28;20780;-80
2021/05/18 16:55:42;;;;;;;4.17;1.10;;;15.40;44.50;;;;;;5065531;28;20214;-81
2021/05/18 16:58:10;;;;;;;2.30;1.20;;;15.50;43.00;;;;;;5069292;28;20497;-81
2021/05/18 17:00:37;;;;;;;1.05;0.90;;;15.30;44.40;;;;;;5078020;28;20194;-82
2021/05/18 17:03:04;;;;;;;1.20;0.60;;;15.50;44.60;;;;;;5079377;28;20195;-82
2021/05/18 17:05:31;;;;;;;0.60;0.60;;;15.50;42.60;;;;;;5075565;28;20195;-83
2021/05/18 17:08:02;;;;;;;2.03;1.20;;;15.30;43.90;;;;;;5078076;28;20213;-80
2021/05/18 17:10:30;;;;;;;3.35;0.70;;;15.40;43.50;;;;;;5079945;28;20213;-85
2021/05/18 17:12:56;;;;;;;1.45;1.20;;;15.30;44.30;;;;;;5075938;28;20558;-81
2021/05/18 17:15:24;;;;;;;1.50;0.90;;;15.20;44.40;;;;;;5073937;28;20210;-83
2021/05/18 17:17:51;;;;;;;0.75;0.75;;;15.10;44.30;;;;;;5073439;28;20230;-81
2021/05/18 17:20:18;;;;;;;1.17;0.90;;;15.00;44.20;;;;;;5075392;28;20194;-83
2021/05/18 17:22:45;;;;;;;0.70;0.70;;;14.80;44.80;;;;;;5079240;28;20191;-83
2021/05/18 17:25:13;;;;;;;0.93;0.75;;;14.70;45.40;;;;;;5078559;28;20230;-81
2021/05/18 17:27:41;;;;;;;2.40;0.68;;;14.70;43.90;;;;;;5101100;22;20242;-84
2021/05/18 17:30:10;;;;;;;0.68;0.68;;;14.50;43.70;;;;;;5083842;28;20573;-80
2021/05/18 17:32:37;;;;;;;2.25;0.60;;;14.50;42.60;;;;;;5093591;28;20213;-80
2021/05/18 17:35:31;;;;;;;0.60;0.55;;;14.40;42.00;;;;;;5107314;28;20652;-82
2021/05/18 17:37:58;;;;;;;0.95;0.50;;;14.30;41.90;;;;;;5105932;28;20757;-82